createdAt,value
2022-07-29T00:02:06.554Z,101546.53
2022-07-29T00:08:14.193Z,101547.34
2022-07-29T00:14:01.265Z,101543.09
2022-07-29T00:19:48.294Z,101539.19
2022-07-29T00:25:35.078Z,101539.19
2022-07-29T00:31:21.894Z,101529.75
2022-07-29T00:37:08.821Z,101528.81
2022-07-29T00:42:55.861Z,101537.44
2022-07-29T00:48:50.466Z,101533.25
2022-07-29T00:54:44.246Z,101533.16
2022-07-29T01:00:31.909Z,101530.41
2022-07-29T01:06:19.901Z,101534.41
2022-07-29T01:12:07.522Z,101517.81
2022-07-29T01:18:03.276Z,101514.81
2022-07-29T01:24:14.203Z,101518.03
2022-07-29T01:30:05.240Z,101517.63
2022-07-29T01:35:52.485Z,101521.13
2022-07-29T01:41:45.290Z,101522.53
2022-07-29T01:48:07.153Z,101525.03
2022-07-29T01:54:18.746Z,101514.25
2022-07-29T02:00:06.593Z,101509.13
2022-07-29T02:05:59.891Z,101509.63
2022-07-29T02:11:50.676Z,101500.34
2022-07-29T02:17:44.857Z,101515.75
2022-07-29T02:23:50.280Z,101519.38
2022-07-29T02:29:39.588Z,101513.09
2022-07-29T02:35:27.010Z,101515.63
2022-07-29T02:41:18.472Z,101509.66
2022-07-29T02:47:14.749Z,101506.50
2022-07-29T02:53:19.883Z,101507.16
2022-07-29T02:59:12.571Z,101507.16
2022-07-29T03:05:01.138Z,101513.53
2022-07-29T03:10:49.054Z,101515.91
2022-07-29T03:16:41.175Z,101511.75
2022-07-29T03:22:28.717Z,101521.16
2022-07-29T03:28:18.575Z,101530.16
2022-07-29T03:34:05.870Z,101525.59
2022-07-29T03:39:56.013Z,101521.44
2022-07-29T03:45:45.366Z,101522.72
2022-07-29T03:51:34.071Z,101525.28
2022-07-29T03:57:25.791Z,101521.50
2022-07-29T04:03:13.585Z,101530.31
2022-07-29T04:09:02.643Z,101523.59
2022-07-29T04:14:49.710Z,101537.66
2022-07-29T04:20:36.528Z,101532.91
2022-07-29T04:26:23.214Z,101534.72
2022-07-29T04:32:10.023Z,101538.25
2022-07-29T04:37:56.880Z,101536.91
2022-07-29T04:43:43.761Z,101534.75
2022-07-29T04:49:30.506Z,101544.00
2022-07-29T04:55:17.402Z,101540.16
2022-07-29T05:01:10.441Z,101535.78
2022-07-29T05:06:57.302Z,101542.25
2022-07-29T05:12:44.437Z,101540.88
2022-07-29T05:18:34.357Z,101532.09
2022-07-29T05:24:24.149Z,101525.47
2022-07-29T05:30:13.626Z,101525.19
2022-07-29T05:36:01.165Z,101513.50
2022-07-29T05:41:51.888Z,101512.50
2022-07-29T05:47:38.904Z,101519.38
2022-07-29T05:53:25.657Z,101531.75
2022-07-29T05:59:18.299Z,101539.44
2022-07-29T06:05:18.037Z,101547.19
2022-07-29T06:11:17.892Z,101554.09
2022-07-29T06:17:08.837Z,101564.78
2022-07-29T06:22:55.659Z,101564.59
2022-07-29T06:28:42.463Z,101574.84
2022-07-29T06:34:30.417Z,101574.09
2022-07-29T06:40:36.874Z,101576.47
2022-07-29T06:46:24.346Z,101587.94
2022-07-29T06:52:11.557Z,101583.19
2022-07-29T06:58:01.174Z,101581.28
2022-07-29T07:03:55.669Z,101585.78
2022-07-29T07:09:52.341Z,101587.16
2022-07-29T07:15:40.378Z,101588.66
2022-07-29T07:21:30.341Z,101586.75
2022-07-29T07:28:02.012Z,101592.13
2022-07-29T07:33:50.431Z,101584.41
2022-07-29T07:39:40.337Z,101595.88
2022-07-29T07:45:30.778Z,101591.13
2022-07-29T07:51:17.539Z,101584.78
2022-07-29T07:57:07.881Z,101584.41
2022-07-29T08:03:02.062Z,101587.22
2022-07-29T08:09:19.511Z,101584.50
2022-07-29T08:15:07.886Z,101567.56
2022-07-29T08:20:55.418Z,101576.25
2022-07-29T08:27:00.768Z,101575.25
2022-07-29T08:32:54.113Z,101574.44
2022-07-29T08:38:44.660Z,101568.31
2022-07-29T08:44:33.020Z,101575.06
2022-07-29T08:50:22.263Z,101568.25
2022-07-29T08:56:14.995Z,101568.25
2022-07-29T09:02:05.753Z,101554.63
2022-07-29T09:07:58.071Z,101559.84
2022-07-29T09:13:48.275Z,101560.44
2022-07-29T09:19:45.577Z,101547.03
2022-07-29T09:25:34.876Z,101561.53
2022-07-29T09:31:34.057Z,101547.25
2022-07-29T09:37:30.604Z,101541.91
2022-07-29T09:43:17.748Z,101543.75
2022-07-29T09:49:16.434Z,101540.34
2022-07-29T09:55:08.166Z,101543.94
2022-07-29T10:00:56.608Z,101544.56
2022-07-29T10:07:06.165Z,101552.66
2022-07-29T10:13:08.933Z,101546.28
2022-07-29T10:19:00.095Z,101548.97
2022-07-29T10:24:50.272Z,101537.75
2022-07-29T10:30:41.164Z,101543.50
2022-07-29T10:36:37.220Z,101530.75
2022-07-29T10:49:15.388Z,101541.44
2022-07-29T10:55:43.212Z,101535.84
2022-07-29T11:01:37.289Z,101536.63
2022-07-29T11:07:45.747Z,101524.38
2022-07-29T11:13:53.339Z,101530.38
2022-07-29T11:19:46.784Z,101543.78
2022-07-29T11:25:50.866Z,101533.03
2022-07-29T11:31:45.432Z,101538.53
2022-07-29T11:37:42.571Z,101529.19
2022-07-29T11:49:59.927Z,101533.91
2022-07-29T11:56:08.518Z,101526.03
2022-07-29T12:02:18.340Z,101521.41
2022-07-29T12:08:35.719Z,101513.78
2022-07-29T12:14:53.166Z,101527.81
2022-07-29T12:20:44.172Z,101527.41
2022-07-29T12:26:37.578Z,101519.84
2022-07-29T12:32:30.943Z,101516.13
2022-07-29T12:38:26.115Z,101508.97
2022-07-29T12:44:12.952Z,101515.97
2022-07-29T12:50:37.833Z,101504.25
2022-07-29T12:56:42.399Z,101507.31
2022-07-29T13:02:30.639Z,101499.41
2022-07-29T13:08:22.782Z,101503.75
2022-07-29T13:14:12.042Z,101501.22
2022-07-29T13:20:20.339Z,101502.84
2022-07-29T13:26:20.622Z,101500.69
2022-07-29T13:32:08.427Z,101493.91
2022-07-29T13:37:55.312Z,101491.09
2022-07-29T13:43:42.212Z,101487.41
2022-07-29T13:49:29.204Z,101497.00
2022-07-29T13:55:16.042Z,101493.69
2022-07-29T14:01:06.152Z,101493.34
2022-07-29T14:06:53.242Z,101491.50
2022-07-29T14:12:40.329Z,101490.00
2022-07-29T14:18:28.571Z,101476.59
2022-07-29T14:24:16.261Z,101485.88
2022-07-29T14:30:09.136Z,101482.25
2022-07-29T14:35:56.032Z,101468.94
2022-07-29T14:41:47.898Z,101476.78
2022-07-29T14:47:35.137Z,101483.13
2022-07-29T14:53:22.075Z,101470.78
2022-07-29T14:59:08.855Z,101469.88
2022-07-29T15:04:55.608Z,101456.84
2022-07-29T15:10:42.515Z,101460.06
2022-07-29T15:16:29.403Z,101454.59
2022-07-29T15:22:19.179Z,101445.94
2022-07-29T15:28:09.259Z,101446.94
2022-07-29T15:33:58.769Z,101440.59
2022-07-29T15:39:48.345Z,101443.44
2022-07-29T15:45:40.829Z,101466.13
2022-07-29T15:51:28.910Z,101454.66
2022-07-29T15:57:16.735Z,101464.41
2022-07-29T16:03:04.145Z,101459.38
2022-07-29T16:08:55.926Z,101466.78
2022-07-29T16:14:49.478Z,101459.66
2022-07-29T16:28:51.649Z,101442.19
2022-07-29T17:12:00.728Z,101438.69
2022-07-29T17:17:55.280Z,101445.41
2022-07-29T17:24:16.641Z,101447.84
2022-07-29T17:30:59.292Z,101452.97
2022-07-29T17:43:55.305Z,101450.16
2022-07-29T17:49:46.200Z,101449.06
2022-07-29T17:55:41.717Z,101457.91
2022-07-29T18:01:38.516Z,101466.06
2022-07-29T18:08:10.144Z,101467.50
2022-07-29T18:14:41.716Z,101476.00
2022-07-29T18:45:19.124Z,101474.59
2022-07-29T18:58:31.762Z,101486.22
2022-07-29T19:06:01.260Z,101482.91
2022-07-29T19:20:54.676Z,101504.13
2022-07-29T19:25:53.534Z,101518.38
2022-07-29T19:31:44.214Z,101523.72
2022-07-29T19:37:31.569Z,101536.94
2022-07-29T19:43:51.561Z,101552.16
2022-07-29T19:49:37.222Z,101559.78
2022-07-29T19:55:24.248Z,101564.56
2022-07-29T20:01:11.611Z,101579.66
2022-07-29T20:07:03.492Z,101578.72
2022-07-29T20:12:51.273Z,101596.81
2022-07-29T20:18:40.629Z,101593.81
2022-07-29T20:24:27.546Z,101601.00
2022-07-29T20:30:14.582Z,101602.81
2022-07-29T20:36:01.342Z,101601.34
2022-07-29T20:41:48.746Z,101616.63
2022-07-29T20:47:35.723Z,101613.34
2022-07-29T20:53:23.489Z,101623.22
2022-07-29T20:59:11.353Z,101622.94
2022-07-29T21:05:00.875Z,101620.75
2022-07-29T21:10:47.959Z,101611.94
2022-07-29T21:16:34.948Z,101605.84
2022-07-29T21:22:22.552Z,101604.22
2022-07-29T21:28:29.685Z,101613.81
2022-07-29T21:34:19.267Z,101619.84
2022-07-29T21:40:07.481Z,101632.13
2022-07-29T21:45:57.535Z,101641.25
2022-07-29T21:51:44.691Z,101648.72
2022-07-29T21:57:34.459Z,101633.69
2022-07-29T22:03:23.730Z,101631.84
2022-07-29T22:09:11.200Z,101638.38
2022-07-29T22:14:59.966Z,101644.97
2022-07-29T22:20:47.749Z,101661.59
2022-07-29T22:26:38.395Z,101651.94
2022-07-29T22:32:25.654Z,101655.13
2022-07-29T22:38:12.452Z,101655.66
2022-07-29T22:43:59.347Z,101654.59
2022-07-29T22:49:46.566Z,101655.84
2022-07-29T22:55:33.422Z,101659.34
2022-07-29T23:01:37.513Z,101655.56
2022-07-29T23:07:24.929Z,101652.41
2022-07-29T23:13:11.968Z,101653.69
2022-07-29T23:18:58.737Z,101658.28
2022-07-29T23:24:45.517Z,101656.28
2022-07-29T23:30:32.478Z,101651.72
2022-07-29T23:36:20.941Z,101648.34
2022-07-29T23:42:07.670Z,101648.56
2022-07-29T23:47:54.454Z,101644.25
2022-07-29T23:53:53.730Z,101643.53
2022-07-29T23:59:41.052Z,101651.38
